sensor_id;sensor_type;location;lat;lon;timestamp;temperature;humidity
35541;DHT22;21650;48.840;9.162;2022-07-23T00:00:15;25.10;98.30
35541;DHT22;21650;48.840;9.162;2022-07-23T00:02:41;25.10;97.90
35541;DHT22;21650;48.840;9.162;2022-07-23T04:00:44;22.80;99.90
35541;DHT22;21650;48.840;9.162;2022-07-23T04:03:10;22.80;99.90
35541;DHT22;21650;48.840;9.162;2022-07-23T04:05:36;22.80;99.90
35541;DHT22;21650;48.840;9.162;2022-07-23T04:08:01;22.70;99.90
35541;DHT22;21650;48.840;9.162;2022-07-23T04:10:27;22.70;99.90
35541;DHT22;21650;48.840;9.162;2022-07-23T04:12:52;22.70;99.90
35541;DHT22;21650;48.840;9.162;2022-07-23T04:15:19;22.70;99.90
35541;DHT22;21650;48.840;9.162;2022-07-23T04:17:45;22.70;99.90
35541;DHT22;21650;48.840;9.162;2022-07-23T04:20:12;22.70;99.90
35541;DHT22;21650;48.840;9.162;2022-07-23T04:22:38;22.70;99.90
35541;DHT22;21650;48.840;9.162;2022-07-23T04:25:04;22.60;99.90
35541;DHT22;21650;48.840;9.162;2022-07-23T04:27:30;22.60;99.90
35541;DHT22;21650;48.840;9.162;2022-07-23T04:29:58;22.60;99.90
35541;DHT22;21650;48.840;9.162;2022-07-23T04:32:24;22.60;99.90
35541;DHT22;21650;48.840;9.162;2022-07-23T04:34:50;22.60;99.90
35541;DHT22;21650;48.840;9.162;2022-07-23T04:37:15;22.60;99.90
35541;DHT22;21650;48.840;9.162;2022-07-23T04:39:41;22.60;99.90
35541;DHT22;21650;48.840;9.162;2022-07-23T04:42:06;22.60;99.90
35541;DHT22;21650;48.840;9.162;2022-07-23T04:44:32;22.60;99.90
35541;DHT22;21650;48.840;9.162;2022-07-23T04:46:58;22.60;99.90
35541;DHT22;21650;48.840;9.162;2022-07-23T04:49:23;22.60;99.90
35541;DHT22;21650;48.840;9.162;2022-07-23T04:51:49;22.70;99.90
35541;DHT22;21650;48.840;9.162;2022-07-23T04:54:14;22.70;99.90
35541;DHT22;21650;48.840;9.162;2022-07-23T04:56:40;22.80;99.90
35541;DHT22;21650;48.840;9.162;2022-07-23T04:59:06;22.80;99.90
35541;DHT22;21650;48.840;9.162;2022-07-23T05:01:31;22.80;99.90
35541;DHT22;21650;48.840;9.162;2022-07-23T05:03:57;22.80;99.90
35541;DHT22;21650;48.840;9.162;2022-07-23T05:06:22;22.80;99.90
35541;DHT22;21650;48.840;9.162;2022-07-23T05:08:48;22.90;99.90
35541;DHT22;21650;48.840;9.162;2022-07-23T05:11:13;22.90;99.90
35541;DHT22;21650;48.840;9.162;2022-07-23T05:13:39;22.90;99.90
35541;DHT22;21650;48.840;9.162;2022-07-23T05:16:05;23.00;99.90
35541;DHT22;21650;48.840;9.162;2022-07-23T05:18:30;23.00;99.90
35541;DHT22;21650;48.840;9.162;2022-07-23T05:20:56;23.00;99.90
35541;DHT22;21650;48.840;9.162;2022-07-23T05:23:21;23.20;99.90
35541;DHT22;21650;48.840;9.162;2022-07-23T05:25:47;23.30;99.90
35541;DHT22;21650;48.840;9.162;2022-07-23T05:28:13;23.40;99.90
35541;DHT22;21650;48.840;9.162;2022-07-23T05:30:38;23.50;99.90
35541;DHT22;21650;48.840;9.162;2022-07-23T05:33:04;23.60;99.90
35541;DHT22;21650;48.840;9.162;2022-07-23T05:35:29;23.60;99.90
35541;DHT22;21650;48.840;9.162;2022-07-23T05:37:55;23.70;99.90
35541;DHT22;21650;48.840;9.162;2022-07-23T05:40:21;23.60;99.90
35541;DHT22;21650;48.840;9.162;2022-07-23T05:42:46;23.50;99.90
35541;DHT22;21650;48.840;9.162;2022-07-23T05:45:12;23.60;99.90
35541;DHT22;21650;48.840;9.162;2022-07-23T05:47:45;23.70;99.90
35541;DHT22;21650;48.840;9.162;2022-07-23T05:50:11;23.60;99.90
35541;DHT22;21650;48.840;9.162;2022-07-23T05:52:38;23.50;99.90
35541;DHT22;21650;48.840;9.162;2022-07-23T05:55:04;23.40;99.90
35541;DHT22;21650;48.840;9.162;2022-07-23T05:57:30;23.30;99.90
35541;DHT22;21650;48.840;9.162;2022-07-23T05:59:55;23.30;99.90
35541;DHT22;21650;48.840;9.162;2022-07-23T06:02:21;23.20;99.90
35541;DHT22;21650;48.840;9.162;2022-07-23T06:04:46;22.90;99.90
35541;DHT22;21650;48.840;9.162;2022-07-23T06:07:12;22.90;99.90
35541;DHT22;21650;48.840;9.162;2022-07-23T06:09:38;22.70;99.90
35541;DHT22;21650;48.840;9.162;2022-07-23T06:12:03;22.70;99.90
35541;DHT22;21650;48.840;9.162;2022-07-23T06:14:29;22.80;99.90
35541;DHT22;21650;48.840;9.162;2022-07-23T06:16:55;22.80;99.90
35541;DHT22;21650;48.840;9.162;2022-07-23T06:19:20;22.80;99.90
35541;DHT22;21650;48.840;9.162;2022-07-23T06:21:46;23.00;99.90
35541;DHT22;21650;48.840;9.162;2022-07-23T06:24:12;23.00;99.90
35541;DHT22;21650;48.840;9.162;2022-07-23T06:26:37;23.00;99.90
35541;DHT22;21650;48.840;9.162;2022-07-23T06:29:03;23.10;99.90
35541;DHT22;21650;48.840;9.162;2022-07-23T06:33:57;23.40;99.90
35541;DHT22;21650;48.840;9.162;2022-07-23T06:36:24;23.40;99.90
35541;DHT22;21650;48.840;9.162;2022-07-23T06:38:49;23.40;99.90
35541;DHT22;21650;48.840;9.162;2022-07-23T06:41:15;23.30;99.90
35541;DHT22;21650;48.840;9.162;2022-07-23T06:43:41;23.10;99.90
35541;DHT22;21650;48.840;9.162;2022-07-23T06:46:06;23.00;99.90
35541;DHT22;21650;48.840;9.162;2022-07-23T06:48:32;23.00;99.90
35541;DHT22;21650;48.840;9.162;2022-07-23T06:50:59;23.00;99.90
35541;DHT22;21650;48.840;9.162;2022-07-23T06:53:25;22.90;99.90
35541;DHT22;21650;48.840;9.162;2022-07-23T06:55:50;22.90;99.90
35541;DHT22;21650;48.840;9.162;2022-07-23T06:58:16;22.70;99.90
35541;DHT22;21650;48.840;9.162;2022-07-23T07:00:41;22.50;99.90
35541;DHT22;21650;48.840;9.162;2022-07-23T07:03:07;22.50;99.90
35541;DHT22;21650;48.840;9.162;2022-07-23T07:05:32;22.30;99.90
35541;DHT22;21650;48.840;9.162;2022-07-23T07:07:58;22.20;99.90
35541;DHT22;21650;48.840;9.162;2022-07-23T07:10:23;22.10;99.90
35541;DHT22;21650;48.840;9.162;2022-07-23T07:12:49;22.00;99.90
35541;DHT22;21650;48.840;9.162;2022-07-23T07:15:14;22.00;99.90
35541;DHT22;21650;48.840;9.162;2022-07-23T07:17:40;21.90;99.90
35541;DHT22;21650;48.840;9.162;2022-07-23T07:20:08;21.80;99.90
35541;DHT22;21650;48.840;9.162;2022-07-23T07:22:33;21.80;99.90
35541;DHT22;21650;48.840;9.162;2022-07-23T07:24:59;21.60;99.90
35541;DHT22;21650;48.840;9.162;2022-07-23T07:27:24;21.60;99.90
35541;DHT22;21650;48.840;9.162;2022-07-23T07:29:50;21.70;99.90
35541;DHT22;21650;48.840;9.162;2022-07-23T07:32:15;21.60;99.90
35541;DHT22;21650;48.840;9.162;2022-07-23T07:34:41;21.20;99.90
35541;DHT22;21650;48.840;9.162;2022-07-23T07:37:06;21.00;99.90
35541;DHT22;21650;48.840;9.162;2022-07-23T07:39:32;21.00;99.90
35541;DHT22;21650;48.840;9.162;2022-07-23T07:41:57;20.90;99.90
35541;DHT22;21650;48.840;9.162;2022-07-23T07:44:23;21.30;99.90
35541;DHT22;21650;48.840;9.162;2022-07-23T07:46:48;21.10;99.90
35541;DHT22;21650;48.840;9.162;2022-07-23T07:49:14;21.10;99.90
35541;DHT22;21650;48.840;9.162;2022-07-23T07:51:39;21.10;99.90
35541;DHT22;21650;48.840;9.162;2022-07-23T07:54:05;21.50;99.90
35541;DHT22;21650;48.840;9.162;2022-07-23T07:56:30;21.70;99.90
35541;DHT22;21650;48.840;9.162;2022-07-23T07:58:56;21.60;99.90
35541;DHT22;21650;48.840;9.162;2022-07-23T08:01:21;21.10;99.90
35541;DHT22;21650;48.840;9.162;2022-07-23T08:03:47;21.00;99.90
35541;DHT22;21650;48.840;9.162;2022-07-23T08:06:13;20.80;99.90
35541;DHT22;21650;48.840;9.162;2022-07-23T08:08:38;21.00;99.90
35541;DHT22;21650;48.840;9.162;2022-07-23T08:11:04;21.00;99.90
35541;DHT22;21650;48.840;9.162;2022-07-23T08:13:29;21.50;99.90
35541;DHT22;21650;48.840;9.162;2022-07-23T08:15:55;21.90;99.90
35541;DHT22;21650;48.840;9.162;2022-07-23T08:18:20;22.00;99.90
35541;DHT22;21650;48.840;9.162;2022-07-23T08:20:46;22.20;99.90
35541;DHT22;21650;48.840;9.162;2022-07-23T08:23:12;22.40;99.90
35541;DHT22;21650;48.840;9.162;2022-07-23T08:25:40;22.50;99.90
35541;DHT22;21650;48.840;9.162;2022-07-23T08:28:08;22.50;99.90
35541;DHT22;21650;48.840;9.162;2022-07-23T08:30:35;22.70;99.90
35541;DHT22;21650;48.840;9.162;2022-07-23T08:33:04;22.90;99.90
35541;DHT22;21650;48.840;9.162;2022-07-23T08:35:33;23.10;99.90
35541;DHT22;21650;48.840;9.162;2022-07-23T08:38:03;23.40;99.90
35541;DHT22;21650;48.840;9.162;2022-07-23T08:40:31;23.40;99.90
35541;DHT22;21650;48.840;9.162;2022-07-23T08:42:57;23.70;99.90
35541;DHT22;21650;48.840;9.162;2022-07-23T08:45:25;24.30;99.90
35541;DHT22;21650;48.840;9.162;2022-07-23T08:47:56;24.70;99.90
35541;DHT22;21650;48.840;9.162;2022-07-23T08:50:23;25.40;99.90
35541;DHT22;21650;48.840;9.162;2022-07-23T08:52:50;26.00;99.90
35541;DHT22;21650;48.840;9.162;2022-07-23T08:55:19;26.20;99.90
35541;DHT22;21650;48.840;9.162;2022-07-23T08:57:51;26.40;99.90
35541;DHT22;21650;48.840;9.162;2022-07-23T09:00:17;26.40;99.90
35541;DHT22;21650;48.840;9.162;2022-07-23T09:02:44;26.30;99.90
35541;DHT22;21650;48.840;9.162;2022-07-23T09:05:11;27.00;99.90
35541;DHT22;21650;48.840;9.162;2022-07-23T09:07:38;27.60;99.90
35541;DHT22;21650;48.840;9.162;2022-07-23T09:10:23;28.00;99.90
35541;DHT22;21650;48.840;9.162;2022-07-23T09:12:48;27.70;99.90
35541;DHT22;21650;48.840;9.162;2022-07-23T09:15:14;26.90;99.90
35541;DHT22;21650;48.840;9.162;2022-07-23T09:17:42;26.60;99.90
35541;DHT22;21650;48.840;9.162;2022-07-23T09:20:15;26.40;99.90
35541;DHT22;21650;48.840;9.162;2022-07-23T09:22:46;26.10;99.90
35541;DHT22;21650;48.840;9.162;2022-07-23T09:25:13;25.80;99.90
35541;DHT22;21650;48.840;9.162;2022-07-23T09:30:10;25.80;99.90
35541;DHT22;21650;48.840;9.162;2022-07-23T09:32:36;26.00;99.90
35541;DHT22;21650;48.840;9.162;2022-07-23T09:35:01;26.20;99.90
35541;DHT22;21650;48.840;9.162;2022-07-23T09:37:27;26.00;99.90
35541;DHT22;21650;48.840;9.162;2022-07-23T09:40:04;26.50;99.90
35541;DHT22;21650;48.840;9.162;2022-07-23T09:42:30;27.10;99.90
35541;DHT22;21650;48.840;9.162;2022-07-23T09:44:58;27.20;99.90
35541;DHT22;21650;48.840;9.162;2022-07-23T09:47:27;27.30;99.90
35541;DHT22;21650;48.840;9.162;2022-07-23T09:50:20;27.10;98.60
35541;DHT22;21650;48.840;9.162;2022-07-23T09:52:48;27.60;99.80
35541;DHT22;21650;48.840;9.162;2022-07-23T09:55:15;27.90;97.90
35541;DHT22;21650;48.840;9.162;2022-07-23T09:57:41;27.90;96.70
35541;DHT22;21650;48.840;9.162;2022-07-23T10:00:09;27.60;96.10
35541;DHT22;21650;48.840;9.162;2022-07-23T10:02:36;27.80;97.30
35541;DHT22;21650;48.840;9.162;2022-07-23T10:05:03;27.50;95.50
35541;DHT22;21650;48.840;9.162;2022-07-23T10:07:31;27.60;98.60
35541;DHT22;21650;48.840;9.162;2022-07-23T10:09:59;28.20;98.70
35541;DHT22;21650;48.840;9.162;2022-07-23T10:12:25;28.50;95.70
35541;DHT22;21650;48.840;9.162;2022-07-23T10:15:04;27.80;94.80
35541;DHT22;21650;48.840;9.162;2022-07-23T10:17:31;27.10;94.90
35541;DHT22;21650;48.840;9.162;2022-07-23T10:19:57;26.70;96.10
35541;DHT22;21650;48.840;9.162;2022-07-23T10:22:26;26.90;95.00
35541;DHT22;21650;48.840;9.162;2022-07-23T10:24:59;27.30;95.50
35541;DHT22;21650;48.840;9.162;2022-07-23T10:30:36;27.60;94.60
35541;DHT22;21650;48.840;9.162;2022-07-23T10:36:20;27.60;95.90
35541;DHT22;21650;48.840;9.162;2022-07-23T10:41:52;27.90;95.40
35541;DHT22;21650;48.840;9.162;2022-07-23T10:44:20;27.80;96.00
35541;DHT22;21650;48.840;9.162;2022-07-23T10:47:01;27.60;96.50
35541;DHT22;21650;48.840;9.162;2022-07-23T10:49:29;27.80;97.50
35541;DHT22;21650;48.840;9.162;2022-07-23T10:54:41;27.90;96.50
35541;DHT22;21650;48.840;9.162;2022-07-23T10:57:07;28.00;96.00
35541;DHT22;21650;48.840;9.162;2022-07-23T11:02:29;28.30;95.90
35541;DHT22;21650;48.840;9.162;2022-07-23T11:05:00;28.60;96.70
35541;DHT22;21650;48.840;9.162;2022-07-23T11:07:26;28.90;96.00
35541;DHT22;21650;48.840;9.162;2022-07-23T11:09:52;28.60;93.10
35541;DHT22;21650;48.840;9.162;2022-07-23T11:15:08;28.30;93.40
35541;DHT22;21650;48.840;9.162;2022-07-23T11:20:18;28.20;93.00
35541;DHT22;21650;48.840;9.162;2022-07-23T11:25:14;28.20;92.50
35541;DHT22;21650;48.840;9.162;2022-07-23T11:27:43;28.40;92.90
35541;DHT22;21650;48.840;9.162;2022-07-23T11:30:13;28.20;92.20
35541;DHT22;21650;48.840;9.162;2022-07-23T11:33:16;27.40;92.60
35541;DHT22;21650;48.840;9.162;2022-07-23T11:35:45;28.10;92.70
35541;DHT22;21650;48.840;9.162;2022-07-23T11:40:42;27.90;92.70
35541;DHT22;21650;48.840;9.162;2022-07-23T11:43:09;27.90;92.80
35541;DHT22;21650;48.840;9.162;2022-07-23T11:45:41;28.20;92.10
35541;DHT22;21650;48.840;9.162;2022-07-23T11:48:09;28.10;92.70
35541;DHT22;21650;48.840;9.162;2022-07-23T11:50:36;28.30;92.50
35541;DHT22;21650;48.840;9.162;2022-07-23T11:53:02;28.70;93.10
35541;DHT22;21650;48.840;9.162;2022-07-23T11:55:28;28.50;92.70
35541;DHT22;21650;48.840;9.162;2022-07-23T11:57:55;28.30;92.30
35541;DHT22;21650;48.840;9.162;2022-07-23T12:00:24;28.50;92.90
35541;DHT22;21650;48.840;9.162;2022-07-23T12:02:56;28.40;92.50
35541;DHT22;21650;48.840;9.162;2022-07-23T12:05:31;28.70;92.70
35541;DHT22;21650;48.840;9.162;2022-07-23T12:07:58;28.80;91.30
35541;DHT22;21650;48.840;9.162;2022-07-23T12:10:38;28.60;90.70
35541;DHT22;21650;48.840;9.162;2022-07-23T12:13:15;28.80;91.70
35541;DHT22;21650;48.840;9.162;2022-07-23T12:15:50;29.30;90.90
35541;DHT22;21650;48.840;9.162;2022-07-23T12:18:19;28.80;91.10
35541;DHT22;21650;48.840;9.162;2022-07-23T12:20:56;29.10;90.30
35541;DHT22;21650;48.840;9.162;2022-07-23T12:23:26;28.80;90.90
35541;DHT22;21650;48.840;9.162;2022-07-23T12:25:52;29.10;90.40
35541;DHT22;21650;48.840;9.162;2022-07-23T12:28:29;29.50;90.10
35541;DHT22;21650;48.840;9.162;2022-07-23T12:30:56;29.60;90.60
35541;DHT22;21650;48.840;9.162;2022-07-23T12:33:30;29.30;89.60
35541;DHT22;21650;48.840;9.162;2022-07-23T12:35:58;29.60;89.90
35541;DHT22;21650;48.840;9.162;2022-07-23T12:38:26;29.20;89.80
35541;DHT22;21650;48.840;9.162;2022-07-23T12:40:53;29.70;89.90
35541;DHT22;21650;48.840;9.162;2022-07-23T12:43:27;29.40;89.70
35541;DHT22;21650;48.840;9.162;2022-07-23T12:46:04;29.50;90.20
35541;DHT22;21650;48.840;9.162;2022-07-23T12:48:31;29.70;87.70
35541;DHT22;21650;48.840;9.162;2022-07-23T12:51:23;29.60;88.80
35541;DHT22;21650;48.840;9.162;2022-07-23T12:53:56;29.30;90.60
35541;DHT22;21650;48.840;9.162;2022-07-23T12:56:31;29.50;90.00
35541;DHT22;21650;48.840;9.162;2022-07-23T12:59:05;29.40;90.10
35541;DHT22;21650;48.840;9.162;2022-07-23T13:01:37;29.80;88.70
35541;DHT22;21650;48.840;9.162;2022-07-23T13:04:08;29.00;88.40
35541;DHT22;21650;48.840;9.162;2022-07-23T13:09:02;29.00;90.40
35541;DHT22;21650;48.840;9.162;2022-07-23T13:11:28;29.30;90.50
35541;DHT22;21650;48.840;9.162;2022-07-23T13:13:53;28.70;89.90
35541;DHT22;21650;48.840;9.162;2022-07-23T13:16:19;28.50;90.90
35541;DHT22;21650;48.840;9.162;2022-07-23T13:18:44;28.10;90.30
35541;DHT22;21650;48.840;9.162;2022-07-23T13:21:10;28.50;91.20
35541;DHT22;21650;48.840;9.162;2022-07-23T13:23:36;28.90;90.80
35541;DHT22;21650;48.840;9.162;2022-07-23T13:26:02;29.10;90.20
35541;DHT22;21650;48.840;9.162;2022-07-23T13:28:28;29.30;90.80
35541;DHT22;21650;48.840;9.162;2022-07-23T13:30:53;29.50;89.80
35541;DHT22;21650;48.840;9.162;2022-07-23T13:33:20;29.10;89.70
35541;DHT22;21650;48.840;9.162;2022-07-23T13:35:47;29.10;90.50
35541;DHT22;21650;48.840;9.162;2022-07-23T13:38:13;29.50;89.60
35541;DHT22;21650;48.840;9.162;2022-07-23T13:40:41;29.40;89.20
35541;DHT22;21650;48.840;9.162;2022-07-23T13:43:11;29.70;89.60
35541;DHT22;21650;48.840;9.162;2022-07-23T13:45:37;29.40;89.80
35541;DHT22;21650;48.840;9.162;2022-07-23T13:48:03;29.10;90.70
35541;DHT22;21650;48.840;9.162;2022-07-23T13:50:29;29.70;90.50
35541;DHT22;21650;48.840;9.162;2022-07-23T13:52:55;29.70;86.40
35541;DHT22;21650;48.840;9.162;2022-07-23T13:55:20;30.10;85.50
35541;DHT22;21650;48.840;9.162;2022-07-23T13:57:46;29.90;85.40
35541;DHT22;21650;48.840;9.162;2022-07-23T14:00:12;29.90;85.10
35541;DHT22;21650;48.840;9.162;2022-07-23T14:02:39;29.70;83.90
35541;DHT22;21650;48.840;9.162;2022-07-23T14:05:07;30.00;86.00
35541;DHT22;21650;48.840;9.162;2022-07-23T14:07:34;30.40;85.00
35541;DHT22;21650;48.840;9.162;2022-07-23T14:09:59;30.30;83.90
35541;DHT22;21650;48.840;9.162;2022-07-23T14:12:26;30.80;84.00
35541;DHT22;21650;48.840;9.162;2022-07-23T14:14:51;30.50;82.00
35541;DHT22;21650;48.840;9.162;2022-07-23T14:17:18;30.50;84.10
35541;DHT22;21650;48.840;9.162;2022-07-23T14:19:43;30.50;82.80
35541;DHT22;21650;48.840;9.162;2022-07-23T14:22:09;30.90;83.00
35541;DHT22;21650;48.840;9.162;2022-07-23T14:24:34;30.90;80.40
35541;DHT22;21650;48.840;9.162;2022-07-23T14:27:01;30.50;81.10
35541;DHT22;21650;48.840;9.162;2022-07-23T14:29:27;30.60;81.90
35541;DHT22;21650;48.840;9.162;2022-07-23T14:31:53;31.00;79.90
35541;DHT22;21650;48.840;9.162;2022-07-23T14:34:18;31.40;81.00
35541;DHT22;21650;48.840;9.162;2022-07-23T14:36:44;30.90;78.30
35541;DHT22;21650;48.840;9.162;2022-07-23T14:39:10;31.20;78.60
35541;DHT22;21650;48.840;9.162;2022-07-23T14:41:37;31.20;81.00
35541;DHT22;21650;48.840;9.162;2022-07-23T14:44:03;31.40;80.30
35541;DHT22;21650;48.840;9.162;2022-07-23T14:46:29;31.60;79.30
35541;DHT22;21650;48.840;9.162;2022-07-23T14:48:55;31.30;77.40
35541;DHT22;21650;48.840;9.162;2022-07-23T14:51:20;31.10;77.70
35541;DHT22;21650;48.840;9.162;2022-07-23T14:53:46;31.30;78.10
35541;DHT22;21650;48.840;9.162;2022-07-23T14:56:11;31.60;76.60
35541;DHT22;21650;48.840;9.162;2022-07-23T14:58:39;30.90;76.90
35541;DHT22;21650;48.840;9.162;2022-07-23T15:01:04;31.00;78.30
35541;DHT22;21650;48.840;9.162;2022-07-23T15:03:30;31.30;78.20
35541;DHT22;21650;48.840;9.162;2022-07-23T15:05:56;31.40;77.50
35541;DHT22;21650;48.840;9.162;2022-07-23T15:08:21;31.70;77.30
35541;DHT22;21650;48.840;9.162;2022-07-23T15:10:47;31.70;74.90
35541;DHT22;21650;48.840;9.162;2022-07-23T15:13:12;30.90;75.00
35541;DHT22;21650;48.840;9.162;2022-07-23T15:15:38;30.70;76.50
35541;DHT22;21650;48.840;9.162;2022-07-23T15:18:04;30.70;78.00
35541;DHT22;21650;48.840;9.162;2022-07-23T15:20:29;30.50;77.40
35541;DHT22;21650;48.840;9.162;2022-07-23T15:22:56;30.50;79.90
35541;DHT22;21650;48.840;9.162;2022-07-23T15:25:21;30.10;78.10
35541;DHT22;21650;48.840;9.162;2022-07-23T15:27:47;30.40;77.80
35541;DHT22;21650;48.840;9.162;2022-07-23T15:30:13;30.70;77.40
35541;DHT22;21650;48.840;9.162;2022-07-23T15:32:38;30.40;77.00
35541;DHT22;21650;48.840;9.162;2022-07-23T15:35:04;30.10;77.40
35541;DHT22;21650;48.840;9.162;2022-07-23T15:37:32;29.90;78.60
35541;DHT22;21650;48.840;9.162;2022-07-23T15:39:57;30.10;79.90
35541;DHT22;21650;48.840;9.162;2022-07-23T15:42:23;30.90;77.00
35541;DHT22;21650;48.840;9.162;2022-07-23T15:44:49;30.40;77.00
35541;DHT22;21650;48.840;9.162;2022-07-23T15:47:16;30.80;75.70
35541;DHT22;21650;48.840;9.162;2022-07-23T15:49:42;30.60;75.40
35541;DHT22;21650;48.840;9.162;2022-07-23T15:52:08;30.70;74.90
35541;DHT22;21650;48.840;9.162;2022-07-23T15:54:37;30.60;77.20
35541;DHT22;21650;48.840;9.162;2022-07-23T15:57:03;30.80;78.60
35541;DHT22;21650;48.840;9.162;2022-07-23T15:59:29;30.80;76.80
35541;DHT22;21650;48.840;9.162;2022-07-23T16:01:55;30.10;77.10
35541;DHT22;21650;48.840;9.162;2022-07-23T16:04:21;30.00;76.20
35541;DHT22;21650;48.840;9.162;2022-07-23T16:06:46;29.90;77.10
35541;DHT22;21650;48.840;9.162;2022-07-23T16:09:12;30.00;77.30
35541;DHT22;21650;48.840;9.162;2022-07-23T16:11:37;29.60;77.00
35541;DHT22;21650;48.840;9.162;2022-07-23T16:14:03;29.20;78.70
35541;DHT22;21650;48.840;9.162;2022-07-23T16:16:29;29.50;78.60
35541;DHT22;21650;48.840;9.162;2022-07-23T16:18:55;29.60;80.20
35541;DHT22;21650;48.840;9.162;2022-07-23T16:21:22;29.80;79.60
35541;DHT22;21650;48.840;9.162;2022-07-23T16:23:48;30.10;80.00
35541;DHT22;21650;48.840;9.162;2022-07-23T16:26:14;29.60;79.70
35541;DHT22;21650;48.840;9.162;2022-07-23T16:28:41;29.50;81.10
35541;DHT22;21650;48.840;9.162;2022-07-23T16:31:07;29.60;80.40
35541;DHT22;21650;48.840;9.162;2022-07-23T16:33:33;29.70;80.90
35541;DHT22;21650;48.840;9.162;2022-07-23T16:35:59;29.60;80.00
35541;DHT22;21650;48.840;9.162;2022-07-23T16:38:25;29.10;82.50
35541;DHT22;21650;48.840;9.162;2022-07-23T16:40:51;29.30;83.30
35541;DHT22;21650;48.840;9.162;2022-07-23T16:43:17;29.20;84.20
35541;DHT22;21650;48.840;9.162;2022-07-23T16:45:44;29.50;84.90
35541;DHT22;21650;48.840;9.162;2022-07-23T16:48:09;28.80;84.40
35541;DHT22;21650;48.840;9.162;2022-07-23T16:50:35;29.00;84.60
35541;DHT22;21650;48.840;9.162;2022-07-23T16:53:00;29.10;85.10
35541;DHT22;21650;48.840;9.162;2022-07-23T16:55:26;29.40;85.30
35541;DHT22;21650;48.840;9.162;2022-07-23T16:57:51;29.50;85.40
35541;DHT22;21650;48.840;9.162;2022-07-23T17:00:17;29.20;85.50
35541;DHT22;21650;48.840;9.162;2022-07-23T17:02:42;28.90;85.80
35541;DHT22;21650;48.840;9.162;2022-07-23T17:05:08;28.70;86.60
35541;DHT22;21650;48.840;9.162;2022-07-23T17:07:35;28.30;87.20
35541;DHT22;21650;48.840;9.162;2022-07-23T17:10:02;28.10;87.10
35541;DHT22;21650;48.840;9.162;2022-07-23T17:12:28;28.00;88.80
35541;DHT22;21650;48.840;9.162;2022-07-23T17:14:54;28.30;88.90
35541;DHT22;21650;48.840;9.162;2022-07-23T17:17:19;28.60;87.90
35541;DHT22;21650;48.840;9.162;2022-07-23T17:19:45;28.40;88.20
35541;DHT22;21650;48.840;9.162;2022-07-23T17:22:10;28.10;89.60
35541;DHT22;21650;48.840;9.162;2022-07-23T17:24:36;28.10;88.50
35541;DHT22;21650;48.840;9.162;2022-07-23T17:27:03;28.10;89.10
35541;DHT22;21650;48.840;9.162;2022-07-23T17:29:29;28.40;88.30
35541;DHT22;21650;48.840;9.162;2022-07-23T17:31:55;28.30;89.80
35541;DHT22;21650;48.840;9.162;2022-07-23T17:34:20;28.30;89.00
35541;DHT22;21650;48.840;9.162;2022-07-23T17:36:46;28.20;89.60
35541;DHT22;21650;48.840;9.162;2022-07-23T17:39:13;28.20;89.10
35541;DHT22;21650;48.840;9.162;2022-07-23T17:41:39;27.80;89.50
35541;DHT22;21650;48.840;9.162;2022-07-23T17:44:12;27.80;90.10
35541;DHT22;21650;48.840;9.162;2022-07-23T17:46:38;27.70;90.70
35541;DHT22;21650;48.840;9.162;2022-07-23T17:49:03;27.80;90.10
35541;DHT22;21650;48.840;9.162;2022-07-23T17:51:29;27.70;90.20
35541;DHT22;21650;48.840;9.162;2022-07-23T17:53:54;27.70;90.30
35541;DHT22;21650;48.840;9.162;2022-07-23T17:56:20;27.50;90.30
35541;DHT22;21650;48.840;9.162;2022-07-23T17:58:45;27.40;90.70
35541;DHT22;21650;48.840;9.162;2022-07-23T18:01:11;27.30;90.70
35541;DHT22;21650;48.840;9.162;2022-07-23T18:03:38;27.40;91.10
35541;DHT22;21650;48.840;9.162;2022-07-23T18:06:04;27.30;90.50
35541;DHT22;21650;48.840;9.162;2022-07-23T18:08:30;27.30;90.80
35541;DHT22;21650;48.840;9.162;2022-07-23T18:10:55;27.30;90.80
35541;DHT22;21650;48.840;9.162;2022-07-23T18:13:21;27.30;90.70
35541;DHT22;21650;48.840;9.162;2022-07-23T18:15:47;27.20;91.20
35541;DHT22;21650;48.840;9.162;2022-07-23T18:18:12;27.30;90.80
35541;DHT22;21650;48.840;9.162;2022-07-23T18:20:38;27.20;91.80
35541;DHT22;21650;48.840;9.162;2022-07-23T18:23:03;27.20;91.30
35541;DHT22;21650;48.840;9.162;2022-07-23T18:25:29;27.10;91.30
35541;DHT22;21650;48.840;9.162;2022-07-23T18:27:55;27.20;92.20
35541;DHT22;21650;48.840;9.162;2022-07-23T18:30:20;27.10;92.30
35541;DHT22;21650;48.840;9.162;2022-07-23T18:32:46;27.10;92.10
35541;DHT22;21650;48.840;9.162;2022-07-23T18:35:12;27.10;92.40
35541;DHT22;21650;48.840;9.162;2022-07-23T18:37:38;27.00;92.30
35541;DHT22;21650;48.840;9.162;2022-07-23T18:40:05;26.90;92.00
35541;DHT22;21650;48.840;9.162;2022-07-23T18:42:31;26.80;92.00
35541;DHT22;21650;48.840;9.162;2022-07-23T18:44:57;26.80;92.10
35541;DHT22;21650;48.840;9.162;2022-07-23T18:47:23;26.70;92.70
35541;DHT22;21650;48.840;9.162;2022-07-23T18:49:48;26.60;92.50
35541;DHT22;21650;48.840;9.162;2022-07-23T18:52:14;26.70;93.10
35541;DHT22;21650;48.840;9.162;2022-07-23T18:54:39;26.70;92.90
35541;DHT22;21650;48.840;9.162;2022-07-23T18:57:05;26.80;93.20
35541;DHT22;21650;48.840;9.162;2022-07-23T18:59:31;26.80;93.60
35541;DHT22;21650;48.840;9.162;2022-07-23T19:01:56;26.80;92.60
35541;DHT22;21650;48.840;9.162;2022-07-23T19:04:22;26.80;93.20
35541;DHT22;21650;48.840;9.162;2022-07-23T19:06:48;26.80;92.60
35541;DHT22;21650;48.840;9.162;2022-07-23T19:09:13;26.80;93.40
35541;DHT22;21650;48.840;9.162;2022-07-23T19:11:39;26.70;92.70
35541;DHT22;21650;48.840;9.162;2022-07-23T19:14:05;26.50;93.20
35541;DHT22;21650;48.840;9.162;2022-07-23T19:16:30;26.50;93.50
35541;DHT22;21650;48.840;9.162;2022-07-23T19:18:56;26.50;95.60
35541;DHT22;21650;48.840;9.162;2022-07-23T19:21:22;26.60;95.20
35541;DHT22;21650;48.840;9.162;2022-07-23T19:23:47;26.50;95.00
35541;DHT22;21650;48.840;9.162;2022-07-23T19:26:13;26.50;95.50
35541;DHT22;21650;48.840;9.162;2022-07-23T19:28:39;26.50;95.60
35541;DHT22;21650;48.840;9.162;2022-07-23T19:31:04;26.40;96.00
35541;DHT22;21650;48.840;9.162;2022-07-23T19:33:30;26.40;95.70
35541;DHT22;21650;48.840;9.162;2022-07-23T19:35:55;26.30;96.20
35541;DHT22;21650;48.840;9.162;2022-07-23T19:38:21;26.30;96.80
35541;DHT22;21650;48.840;9.162;2022-07-23T19:40:47;26.20;97.50
35541;DHT22;21650;48.840;9.162;2022-07-23T19:43:12;26.10;97.70
35541;DHT22;21650;48.840;9.162;2022-07-23T19:45:38;26.10;98.10
35541;DHT22;21650;48.840;9.162;2022-07-23T19:48:04;26.10;97.70
35541;DHT22;21650;48.840;9.162;2022-07-23T19:50:31;26.10;97.80
35541;DHT22;21650;48.840;9.162;2022-07-23T19:52:57;26.10;98.10
35541;DHT22;21650;48.840;9.162;2022-07-23T19:55:23;26.10;98.00